sensor_id;sensor_type;location;lat;lon;timestamp;pressure;altitude;pressure_sealevel;temperature
58102;BMP280;52034;51.926;6.320;2023-02-28T00:00:53;103013.69;;;0.79
58102;BMP280;52034;51.926;6.320;2023-02-28T00:01:53;103016.66;;;0.81
58102;BMP280;52034;51.926;6.320;2023-02-28T00:02:54;103020.97;;;0.82
58102;BMP280;52034;51.926;6.320;2023-02-28T00:03:54;103018.22;;;0.77
58102;BMP280;52034;51.926;6.320;2023-02-28T00:04:54;103021.47;;;0.81
58102;BMP280;52034;51.926;6.320;2023-02-28T00:06:03;103024.44;;;0.83
58102;BMP280;52034;51.926;6.320;2023-02-28T00:07:03;103023.41;;;0.86
58102;BMP280;52034;51.926;6.320;2023-02-28T00:08:04;103018.88;;;0.88
58102;BMP280;52034;51.926;6.320;2023-02-28T00:09:04;103016.84;;;0.89
58102;BMP280;52034;51.926;6.320;2023-02-28T00:10:06;103014.09;;;0.89
58102;BMP280;52034;51.926;6.320;2023-02-28T00:11:10;103012.81;;;0.90
58102;BMP280;52034;51.926;6.320;2023-02-28T00:12:10;103014.56;;;0.93
58102;BMP280;52034;51.926;6.320;2023-02-28T00:13:11;103017.56;;;0.95
58102;BMP280;52034;51.926;6.320;2023-02-28T00:14:11;103018.31;;;0.95
58102;BMP280;52034;51.926;6.320;2023-02-28T00:15:11;103011.28;;;0.94
58102;BMP280;52034;51.926;6.320;2023-02-28T00:16:20;103012.78;;;0.95
58102;BMP280;52034;51.926;6.320;2023-02-28T00:17:21;103003.72;;;0.95
58102;BMP280;52034;51.926;6.320;2023-02-28T00:18:21;103011.06;;;0.92
58102;BMP280;52034;51.926;6.320;2023-02-28T00:19:22;103004.31;;;0.88
58102;BMP280;52034;51.926;6.320;2023-02-28T00:20:22;103007.53;;;0.92
58102;BMP280;52034;51.926;6.320;2023-02-28T00:21:23;103009.53;;;0.91
58102;BMP280;52034;51.926;6.320;2023-02-28T00:22:24;103004.75;;;0.92
58102;BMP280;52034;51.926;6.320;2023-02-28T00:23:25;103003.34;;;0.85
58102;BMP280;52034;51.926;6.320;2023-02-28T00:24:25;103004.81;;;0.86
58102;BMP280;52034;51.926;6.320;2023-02-28T00:25:25;103004.59;;;0.84
58102;BMP280;52034;51.926;6.320;2023-02-28T00:26:26;102999.34;;;0.81
58102;BMP280;52034;51.926;6.320;2023-02-28T00:27:26;103000.59;;;0.80
58102;BMP280;52034;51.926;6.320;2023-02-28T00:28:27;103000.38;;;0.78
58102;BMP280;52034;51.926;6.320;2023-02-28T00:29:27;102996.63;;;0.75
58102;BMP280;52034;51.926;6.320;2023-02-28T00:30:27;103004.41;;;0.77
58102;BMP280;52034;51.926;6.320;2023-02-28T00:31:27;102998.88;;;0.77
58102;BMP280;52034;51.926;6.320;2023-02-28T00:32:28;102999.34;;;0.81
58102;BMP280;52034;51.926;6.320;2023-02-28T00:33:28;103010.63;;;0.83
58102;BMP280;52034;51.926;6.320;2023-02-28T00:34:29;103012.66;;;0.82
58102;BMP280;52034;51.926;6.320;2023-02-28T00:35:29;103003.84;;;0.84
58102;BMP280;52034;51.926;6.320;2023-02-28T00:36:29;103013.69;;;0.79
58102;BMP280;52034;51.926;6.320;2023-02-28T00:37:30;103001.34;;;0.80
58102;BMP280;52034;51.926;6.320;2023-02-28T00:38:30;103005.34;;;0.85
58102;BMP280;52034;51.926;6.320;2023-02-28T00:39:31;103003.84;;;0.84
58102;BMP280;52034;51.926;6.320;2023-02-28T00:40:31;103005.34;;;0.85
58102;BMP280;52034;51.926;6.320;2023-02-28T00:41:31;103000.84;;;0.82
58102;BMP280;52034;51.926;6.320;2023-02-28T00:42:33;103006.94;;;0.75
58102;BMP280;52034;51.926;6.320;2023-02-28T00:43:34;103009.97;;;0.71
58102;BMP280;52034;51.926;6.320;2023-02-28T00:44:35;103013.00;;;0.73
58102;BMP280;52034;51.926;6.320;2023-02-28T00:45:35;103006.69;;;0.73
58102;BMP280;52034;51.926;6.320;2023-02-28T00:46:38;103010.22;;;0.73
58102;BMP280;52034;51.926;6.320;2023-02-28T00:47:38;103006.66;;;0.78
58102;BMP280;52034;51.926;6.320;2023-02-28T00:48:38;103012.19;;;0.78
58102;BMP280;52034;51.926;6.320;2023-02-28T00:49:39;103015.94;;;0.81
58102;BMP280;52034;51.926;6.320;2023-02-28T00:50:39;103006.63;;;0.84
58102;BMP280;52034;51.926;6.320;2023-02-28T00:51:39;103009.38;;;0.84
58102;BMP280;52034;51.926;6.320;2023-02-28T00:52:39;103014.84;;;0.89
58102;BMP280;52034;51.926;6.320;2023-02-28T00:53:40;103010.53;;;0.94
58102;BMP280;52034;51.926;6.320;2023-02-28T00:54:40;103006.50;;;0.95
58102;BMP280;52034;51.926;6.320;2023-02-28T00:55:41;103014.50;;;0.98
58102;BMP280;52034;51.926;6.320;2023-02-28T00:56:42;103012.72;;;1.01
58102;BMP280;52034;51.926;6.320;2023-02-28T00:57:42;103005.91;;;1.02
58102;BMP280;52034;51.926;6.320;2023-02-28T00:58:43;103012.94;;;1.03
58102;BMP280;52034;51.926;6.320;2023-02-28T00:59:43;103009.44;;;1.02
58102;BMP280;52034;51.926;6.320;2023-02-28T01:00:45;103009.97;;;1.01
58102;BMP280;52034;51.926;6.320;2023-02-28T01:01:49;103011.22;;;1.00
58102;BMP280;52034;51.926;6.320;2023-02-28T01:02:49;103013.44;;;1.01
58102;BMP280;52034;51.926;6.320;2023-02-28T01:03:49;103006.44;;;1.00
58102;BMP280;52034;51.926;6.320;2023-02-28T01:04:50;103006.44;;;1.00
58102;BMP280;52034;51.926;6.320;2023-02-28T01:05:50;103004.41;;;1.01
58102;BMP280;52034;51.926;6.320;2023-02-28T01:06:51;103004.63;;;1.03
58102;BMP280;52034;51.926;6.320;2023-02-28T01:07:51;103012.94;;;1.03
58102;BMP280;52034;51.926;6.320;2023-02-28T01:08:52;103015.69;;;1.03
58102;BMP280;52034;51.926;6.320;2023-02-28T01:09:52;103015.44;;;1.06
58102;BMP280;52034;51.926;6.320;2023-02-28T01:10:53;103011.38;;;1.07
58102;BMP280;52034;51.926;6.320;2023-02-28T01:11:53;102999.81;;;1.09
58102;BMP280;52034;51.926;6.320;2023-02-28T01:12:54;103013.09;;;1.10
58102;BMP280;52034;51.926;6.320;2023-02-28T01:13:54;103013.88;;;1.11
58102;BMP280;52034;51.926;6.320;2023-02-28T01:14:54;103014.38;;;1.09
58102;BMP280;52034;51.926;6.320;2023-02-28T01:15:56;103022.38;;;1.13
58102;BMP280;52034;51.926;6.320;2023-02-28T01:16:56;103015.81;;;1.16
58102;BMP280;52034;51.926;6.320;2023-02-28T01:17:59;103014.03;;;1.18
58102;BMP280;52034;51.926;6.320;2023-02-28T01:18:59;103019.06;;;1.20
58102;BMP280;52034;51.926;6.320;2023-02-28T01:19:59;103020.56;;;1.21
58102;BMP280;52034;51.926;6.320;2023-02-28T01:21:08;103017.78;;;1.21
58102;BMP280;52034;51.926;6.320;2023-02-28T01:22:09;103022.78;;;1.22
58102;BMP280;52034;51.926;6.320;2023-02-28T01:23:10;103032.59;;;1.23
58102;BMP280;52034;51.926;6.320;2023-02-28T01:24:10;103023.56;;;1.23
58102;BMP280;52034;51.926;6.320;2023-02-28T01:25:10;103026.31;;;1.23
58102;BMP280;52034;51.926;6.320;2023-02-28T01:26:17;103026.53;;;1.25
58102;BMP280;52034;51.926;6.320;2023-02-28T01:27:18;103026.53;;;1.25
58102;BMP280;52034;51.926;6.320;2023-02-28T01:28:18;103025.25;;;1.26
58102;BMP280;52034;51.926;6.320;2023-02-28T01:29:18;103030.06;;;1.25
58102;BMP280;52034;51.926;6.320;2023-02-28T01:30:19;103023.56;;;1.23
58102;BMP280;52034;51.926;6.320;2023-02-28T01:31:22;103023.06;;;1.19
58102;BMP280;52034;51.926;6.320;2023-02-28T01:32:23;103020.31;;;1.19
58102;BMP280;52034;51.926;6.320;2023-02-28T01:33:24;103024.59;;;1.20
58102;BMP280;52034;51.926;6.320;2023-02-28T01:34:24;103014.78;;;1.19
58102;BMP280;52034;51.926;6.320;2023-02-28T01:35:25;103009.25;;;1.19
58102;BMP280;52034;51.926;6.320;2023-02-28T01:36:25;103017.53;;;1.19
58102;BMP280;52034;51.926;6.320;2023-02-28T01:37:26;103021.31;;;1.21
58102;BMP280;52034;51.926;6.320;2023-02-28T01:38:27;103024.28;;;1.23
58102;BMP280;52034;51.926;6.320;2023-02-28T01:39:28;103019.28;;;1.22
58102;BMP280;52034;51.926;6.320;2023-02-28T01:40:28;103010.00;;;1.19
58102;BMP280;52034;51.926;6.320;2023-02-28T01:41:31;103023.03;;;1.24
58102;BMP280;52034;51.926;6.320;2023-02-28T01:42:33;103012.69;;;1.25
58102;BMP280;52034;51.926;6.320;2023-02-28T01:45:16;103012.19;;;1.26
58102;BMP280;52034;51.926;6.320;2023-02-28T01:46:18;103016.44;;;1.27
58102;BMP280;52034;51.926;6.320;2023-02-28T01:47:21;103013.91;;;1.29
58102;BMP280;52034;51.926;6.320;2023-02-28T01:48:26;103007.63;;;1.29
58102;BMP280;52034;51.926;6.320;2023-02-28T01:49:27;103017.44;;;1.30
58102;BMP280;52034;51.926;6.320;2023-02-28T01:50:31;103015.91;;;1.29
58102;BMP280;52034;51.926;6.320;2023-02-28T01:52:50;103009.84;;;1.30
58102;BMP280;52034;51.926;6.320;2023-02-28T01:54:02;103020.41;;;1.32
58102;BMP280;52034;51.926;6.320;2023-02-28T01:55:04;103017.09;;;1.33
58102;BMP280;52034;51.926;6.320;2023-02-28T01:56:07;103006.66;;;1.26
58102;BMP280;52034;51.926;6.320;2023-02-28T01:57:14;103010.16;;;1.27
58102;BMP280;52034;51.926;6.320;2023-02-28T01:58:15;103017.19;;;1.28
58102;BMP280;52034;51.926;6.320;2023-02-28T01:59:22;103009.34;;;1.32
58102;BMP280;52034;51.926;6.320;2023-02-28T02:00:24;103021.44;;;1.29
58102;BMP280;52034;51.926;6.320;2023-02-28T02:01:27;103006.66;;;1.26
58102;BMP280;52034;51.926;6.320;2023-02-28T02:02:28;103008.44;;;1.24
58102;BMP280;52034;51.926;6.320;2023-02-28T02:03:30;103013.00;;;1.21
58102;BMP280;52034;51.926;6.320;2023-02-28T02:04:32;103014.50;;;1.22
58102;BMP280;52034;51.926;6.320;2023-02-28T02:05:37;103010.97;;;1.22
58102;BMP280;52034;51.926;6.320;2023-02-28T02:06:42;103010.25;;;1.21
58102;BMP280;52034;51.926;6.320;2023-02-28T02:07:46;103008.44;;;1.24
58102;BMP280;52034;51.926;6.320;2023-02-28T02:08:47;103008.19;;;1.22
58102;BMP280;52034;51.926;6.320;2023-02-28T02:09:47;103006.47;;;1.19
58102;BMP280;52034;51.926;6.320;2023-02-28T02:10:53;103007.94;;;1.25
58102;BMP280;52034;51.926;6.320;2023-02-28T02:11:55;103009.94;;;1.25
58102;BMP280;52034;51.926;6.320;2023-02-28T02:14:46;103009.41;;;1.26
58102;BMP280;52034;51.926;6.320;2023-02-28T02:17:37;103003.59;;;1.30
58102;BMP280;52034;51.926;6.320;2023-02-28T02:18:51;103002.31;;;1.31
58102;BMP280;52034;51.926;6.320;2023-02-28T02:24:47;102999.44;;;1.36
58102;BMP280;52034;51.926;6.320;2023-02-28T02:30:53;102995.88;;;1.41
58102;BMP280;52034;51.926;6.320;2023-02-28T02:34:52;102988.78;;;1.46
58102;BMP280;52034;51.926;6.320;2023-02-28T02:36:06;102991.75;;;1.48
58102;BMP280;52034;51.926;6.320;2023-02-28T02:37:15;102994.75;;;1.50
58102;BMP280;52034;51.926;6.320;2023-02-28T02:40:59;102991.47;;;1.51
58102;BMP280;52034;51.926;6.320;2023-02-28T02:42:15;102995.13;;;1.41
58102;BMP280;52034;51.926;6.320;2023-02-28T02:43:20;102996.09;;;1.43
58102;BMP280;52034;51.926;6.320;2023-02-28T02:44:27;103003.16;;;1.44
58102;BMP280;52034;51.926;6.320;2023-02-28T02:45:41;102991.84;;;1.42
58102;BMP280;52034;51.926;6.320;2023-02-28T02:46:45;102984.28;;;1.43
58102;BMP280;52034;51.926;6.320;2023-02-28T02:47:45;102990.03;;;1.45
58102;BMP280;52034;51.926;6.320;2023-02-28T02:48:48;102986.53;;;1.44
58102;BMP280;52034;51.926;6.320;2023-02-28T02:49:52;102996.56;;;1.47
58102;BMP280;52034;51.926;6.320;2023-02-28T02:50:59;102991.75;;;1.48
58102;BMP280;52034;51.926;6.320;2023-02-28T02:52:06;102991.75;;;1.48
58102;BMP280;52034;51.926;6.320;2023-02-28T02:53:09;102995.03;;;1.46
58102;BMP280;52034;51.926;6.320;2023-02-28T02:54:15;102992.28;;;1.46
58102;BMP280;52034;51.926;6.320;2023-02-28T02:55:18;102997.09;;;1.46
58102;BMP280;52034;51.926;6.320;2023-02-28T02:56:24;102998.81;;;1.49
58102;BMP280;52034;51.926;6.320;2023-02-28T02:57:31;102997.28;;;1.48
58102;BMP280;52034;51.926;6.320;2023-02-28T02:58:37;103000.06;;;1.48
58102;BMP280;52034;51.926;6.320;2023-02-28T02:59:43;103000.31;;;1.50
58102;BMP280;52034;51.926;6.320;2023-02-28T03:00:50;103000.50;;;1.52
58102;BMP280;52034;51.926;6.320;2023-02-28T03:01:56;102997.75;;;1.52
58102;BMP280;52034;51.926;6.320;2023-02-28T03:02:57;103000.00;;;1.53
58102;BMP280;52034;51.926;6.320;2023-02-28T03:04:01;103001.72;;;1.56
58102;BMP280;52034;51.926;6.320;2023-02-28T03:05:07;103001.50;;;1.54
58102;BMP280;52034;51.926;6.320;2023-02-28T03:06:08;103002.75;;;1.53
58102;BMP280;52034;51.926;6.320;2023-02-28T03:07:10;103002.53;;;1.51
58102;BMP280;52034;51.926;6.320;2023-02-28T03:08:11;102993.19;;;1.54
58102;BMP280;52034;51.926;6.320;2023-02-28T03:09:12;102994.69;;;1.55
58102;BMP280;52034;51.926;6.320;2023-02-28T03:11:28;102991.41;;;1.57
58102;BMP280;52034;51.926;6.320;2023-02-28T03:12:33;102995.66;;;1.58
58102;BMP280;52034;51.926;6.320;2023-02-28T03:15:12;102991.63;;;1.59
58102;BMP280;52034;51.926;6.320;2023-02-28T03:16:30;102996.66;;;1.60
58102;BMP280;52034;51.926;6.320;2023-02-28T03:19:30;102991.63;;;1.59
58102;BMP280;52034;51.926;6.320;2023-02-28T03:20:53;102997.16;;;1.59
58102;BMP280;52034;51.926;6.320;2023-02-28T03:22:07;102993.19;;;1.54
58102;BMP280;52034;51.926;6.320;2023-02-28T03:24:16;102996.50;;;1.53
58102;BMP280;52034;51.926;6.320;2023-02-28T03:25:27;103003.28;;;1.52
58102;BMP280;52034;51.926;6.320;2023-02-28T03:26:29;102990.50;;;1.49
58102;BMP280;52034;51.926;6.320;2023-02-28T03:27:42;102983.44;;;1.48
58102;BMP280;52034;51.926;6.320;2023-02-28T03:30:29;102988.47;;;1.49
58102;BMP280;52034;51.926;6.320;2023-02-28T03:31:33;102989.22;;;1.50
58102;BMP280;52034;51.926;6.320;2023-02-28T03:34:25;102982.03;;;1.41
58102;BMP280;52034;51.926;6.320;2023-02-28T03:35:32;102990.41;;;1.36
58102;BMP280;52034;51.926;6.320;2023-02-28T03:36:47;102987.66;;;1.36
58102;BMP280;52034;51.926;6.320;2023-02-28T03:37:53;102984.88;;;1.36
58102;BMP280;52034;51.926;6.320;2023-02-28T03:39:04;102989.13;;;1.37
58102;BMP280;52034;51.926;6.320;2023-02-28T03:40:12;102986.38;;;1.37
58102;BMP280;52034;51.926;6.320;2023-02-28T03:41:17;102987.34;;;1.39
58102;BMP280;52034;51.926;6.320;2023-02-28T03:42:22;102984.88;;;1.36
58102;BMP280;52034;51.926;6.320;2023-02-28T03:43:30;102983.81;;;1.39
58102;BMP280;52034;51.926;6.320;2023-02-28T03:44:35;102987.56;;;1.41
58102;BMP280;52034;51.926;6.320;2023-02-28T03:45:37;102981.59;;;1.37
58102;BMP280;52034;51.926;6.320;2023-02-28T03:46:44;102991.06;;;1.42
58102;BMP280;52034;51.926;6.320;2023-02-28T03:48:12;102986.28;;;1.42
58102;BMP280;52034;51.926;6.320;2023-02-28T03:49:20;102987.34;;;1.39
58102;BMP280;52034;51.926;6.320;2023-02-28T03:50:30;102986.81;;;1.41
58102;BMP280;52034;51.926;6.320;2023-02-28T03:51:35;102991.38;;;1.38
58102;BMP280;52034;51.926;6.320;2023-02-28T03:52:40;102987.34;;;1.39
58102;BMP280;52034;51.926;6.320;2023-02-28T03:53:46;102993.84;;;1.42
58102;BMP280;52034;51.926;6.320;2023-02-28T03:54:51;102987.56;;;1.41
58102;BMP280;52034;51.926;6.320;2023-02-28T03:55:56;102987.50;;;1.47
58102;BMP280;52034;51.926;6.320;2023-02-28T03:57:11;102981.22;;;1.46
58102;BMP280;52034;51.926;6.320;2023-02-28T03:58:53;102983.25;;;1.46
58102;BMP280;52034;51.926;6.320;2023-02-28T04:00:03;102967.38;;;1.46
58102;BMP280;52034;51.926;6.320;2023-02-28T04:01:16;102980.69;;;1.48
58102;BMP280;52034;51.926;6.320;2023-02-28T04:02:19;102979.94;;;1.47
58102;BMP280;52034;51.926;6.320;2023-02-28T04:03:19;102976.94;;;1.45
58102;BMP280;52034;51.926;6.320;2023-02-28T04:04:19;102979.03;;;1.39
58102;BMP280;52034;51.926;6.320;2023-02-28T04:05:21;102975.81;;;1.35
58102;BMP280;52034;51.926;6.320;2023-02-28T04:06:22;102978.34;;;1.33
58102;BMP280;52034;51.926;6.320;2023-02-28T04:07:23;102969.09;;;1.31
58102;BMP280;52034;51.926;6.320;2023-02-28T04:08:23;102982.41;;;1.32
58102;BMP280;52034;51.926;6.320;2023-02-28T04:09:23;102972.63;;;1.31
58102;BMP280;52034;51.926;6.320;2023-02-28T04:10:24;102973.16;;;1.30
58102;BMP280;52034;51.926;6.320;2023-02-28T04:11:53;102974.66;;;1.31
58102;BMP280;52034;51.926;6.320;2023-02-28T04:12:55;102975.91;;;1.30
58102;BMP280;52034;51.926;6.320;2023-02-28T04:13:55;102985.16;;;1.32
58102;BMP280;52034;51.926;6.320;2023-02-28T04:14:56;102973.88;;;1.30
58102;BMP280;52034;51.926;6.320;2023-02-28T04:15:56;102978.69;;;1.30
58102;BMP280;52034;51.926;6.320;2023-02-28T04:16:56;102976.19;;;1.26
58102;BMP280;52034;51.926;6.320;2023-02-28T04:17:57;102983.00;;;1.25
58102;BMP280;52034;51.926;6.320;2023-02-28T04:18:57;102978.97;;;1.26
58102;BMP280;52034;51.926;6.320;2023-02-28T04:20:03;102976.97;;;1.27
58102;BMP280;52034;51.926;6.320;2023-02-28T04:21:10;102980.97;;;1.26
58102;BMP280;52034;51.926;6.320;2023-02-28T04:22:10;102980.47;;;1.27
58102;BMP280;52034;51.926;6.320;2023-02-28T04:23:11;102980.25;;;1.25
58102;BMP280;52034;51.926;6.320;2023-02-28T04:24:14;102989.00;;;1.29
58102;BMP280;52034;51.926;6.320;2023-02-28T04:25:15;102985.47;;;1.29
58102;BMP280;52034;51.926;6.320;2023-02-28T04:26:15;102978.22;;;1.26
58102;BMP280;52034;51.926;6.320;2023-02-28T04:27:15;102984.50;;;1.26
58102;BMP280;52034;51.926;6.320;2023-02-28T04:28:16;102981.53;;;1.24
58102;BMP280;52034;51.926;6.320;2023-02-28T04:29:25;102988.84;;;1.22
58102;BMP280;52034;51.926;6.320;2023-02-28T04:30:26;102993.63;;;1.21
58102;BMP280;52034;51.926;6.320;2023-02-28T04:31:26;102987.88;;;1.19
58102;BMP280;52034;51.926;6.320;2023-02-28T04:32:27;102988.63;;;1.20
58102;BMP280;52034;51.926;6.320;2023-02-28T04:33:27;102988.63;;;1.20
58102;BMP280;52034;51.926;6.320;2023-02-28T04:34:30;102989.34;;;1.20
58102;BMP280;52034;51.926;6.320;2023-02-28T04:35:31;102987.09;;;1.19
58102;BMP280;52034;51.926;6.320;2023-02-28T04:36:32;102985.84;;;1.20
58102;BMP280;52034;51.926;6.320;2023-02-28T04:37:32;102991.38;;;1.20
58102;BMP280;52034;51.926;6.320;2023-02-28T04:38:36;102988.63;;;1.20
58102;BMP280;52034;51.926;6.320;2023-02-28T04:39:37;102998.41;;;1.21
58102;BMP280;52034;51.926;6.320;2023-02-28T04:40:37;103000.94;;;1.19
58102;BMP280;52034;51.926;6.320;2023-02-28T04:41:38;102992.63;;;1.19
58102;BMP280;52034;51.926;6.320;2023-02-28T04:42:38;102990.38;;;1.17
58102;BMP280;52034;51.926;6.320;2023-02-28T04:43:38;102992.19;;;1.15
58102;BMP280;52034;51.926;6.320;2023-02-28T04:44:39;102989.13;;;1.18
58102;BMP280;52034;51.926;6.320;2023-02-28T04:45:39;102994.16;;;1.20
58102;BMP280;52034;51.926;6.320;2023-02-28T04:46:39;102996.16;;;1.19
58102;BMP280;52034;51.926;6.320;2023-02-28T04:47:40;102989.13;;;1.18
58102;BMP280;52034;51.926;6.320;2023-02-28T04:48:40;102995.66;;;1.21
58102;BMP280;52034;51.926;6.320;2023-02-28T04:49:41;102994.38;;;1.22
58102;BMP280;52034;51.926;6.320;2023-02-28T04:50:41;102995.66;;;1.21
58102;BMP280;52034;51.926;6.320;2023-02-28T04:51:42;102986.59;;;1.20
58102;BMP280;52034;51.926;6.320;2023-02-28T04:52:42;102997.88;;;1.22
58102;BMP280;52034;51.926;6.320;2023-02-28T04:53:43;102998.13;;;1.24
58102;BMP280;52034;51.926;6.320;2023-02-28T04:54:43;103002.91;;;1.24
58102;BMP280;52034;51.926;6.320;2023-02-28T04:55:44;103001.94;;;1.21
58102;BMP280;52034;51.926;6.320;2023-02-28T04:56:44;103006.94;;;1.23
58102;BMP280;52034;51.926;6.320;2023-02-28T04:57:44;103003.94;;;1.21
58102;BMP280;52034;51.926;6.320;2023-02-28T04:58:45;103006.47;;;1.19
58102;BMP280;52034;51.926;6.320;2023-02-28T04:59:46;103001.94;;;1.21
58102;BMP280;52034;51.926;6.320;2023-02-28T05:00:46;103003.19;;;1.20
58102;BMP280;52034;51.926;6.320;2023-02-28T05:01:48;103010.75;;;1.20
58102;BMP280;52034;51.926;6.320;2023-02-28T05:02:48;103006.72;;;1.21
58102;BMP280;52034;51.926;6.320;2023-02-28T05:03:49;103005.69;;;1.24
58102;BMP280;52034;51.926;6.320;2023-02-28T05:04:50;103008.13;;;1.27
58102;BMP280;52034;51.926;6.320;2023-02-28T05:05:50;103005.59;;;1.29
58102;BMP280;52034;51.926;6.320;2023-02-28T05:06:50;103005.28;;;1.33
58102;BMP280;52034;51.926;6.320;2023-02-28T05:07:51;103012.78;;;1.38
58102;BMP280;52034;51.926;6.320;2023-02-28T05:08:51;103016.75;;;1.42
58102;BMP280;52034;51.926;6.320;2023-02-28T05:09:52;103004.41;;;1.43
58102;BMP280;52034;51.926;6.320;2023-02-28T05:10:53;103005.38;;;1.46
58102;BMP280;52034;51.926;6.320;2023-02-28T05:11:53;103006.34;;;1.48
58102;BMP280;52034;51.926;6.320;2023-02-28T05:12:53;103008.38;;;1.48
58102;BMP280;52034;51.926;6.320;2023-02-28T05:13:54;103005.84;;;1.50
58102;BMP280;52034;51.926;6.320;2023-02-28T05:14:54;103005.59;;;1.48
58102;BMP280;52034;51.926;6.320;2023-02-28T05:15:55;103007.13;;;1.49
58102;BMP280;52034;51.926;6.320;2023-02-28T05:16:55;103016.47;;;1.46
58102;BMP280;52034;51.926;6.320;2023-02-28T05:17:56;103013.53;;;1.38
58102;BMP280;52034;51.926;6.320;2023-02-28T05:18:56;103011.22;;;1.42
58102;BMP280;52034;51.926;6.320;2023-02-28T05:19:56;103008.16;;;1.46
58102;BMP280;52034;51.926;6.320;2023-02-28T05:20:57;103009.66;;;1.47
58102;BMP280;52034;51.926;6.320;2023-02-28T05:21:57;103010.41;;;1.47
58102;BMP280;52034;51.926;6.320;2023-02-28T05:22:59;103006.88;;;1.47
58102;BMP280;52034;51.926;6.320;2023-02-28T05:24:02;103011.97;;;1.43
58102;BMP280;52034;51.926;6.320;2023-02-28T05:25:04;103014.72;;;1.43
58102;BMP280;52034;51.926;6.320;2023-02-28T05:26:05;103018.03;;;1.41
58102;BMP280;52034;51.926;6.320;2023-02-28T05:27:05;103019.78;;;1.39
58102;BMP280;52034;51.926;6.320;2023-02-28T05:28:06;103016.81;;;1.37
58102;BMP280;52034;51.926;6.320;2023-02-28T05:29:07;103019.59;;;1.37
58102;BMP280;52034;51.926;6.320;2023-02-28T05:30:08;103018.63;;;1.34
58102;BMP280;52034;51.926;6.320;2023-02-28T05:31:10;103018.81;;;1.36
58102;BMP280;52034;51.926;6.320;2023-02-28T05:32:12;103002.97;;;1.37
58102;BMP280;52034;51.926;6.320;2023-02-28T05:33:12;103018.09;;;1.36
58102;BMP280;52034;51.926;6.320;2023-02-28T05:34:13;103000.72;;;1.35
58102;BMP280;52034;51.926;6.320;2023-02-28T05:35:15;103007.75;;;1.36
58102;BMP280;52034;51.926;6.320;2023-02-28T05:36:16;103012.03;;;1.37
58102;BMP280;52034;51.926;6.320;2023-02-28T05:37:16;103012.78;;;1.38
58102;BMP280;52034;51.926;6.320;2023-02-28T05:38:16;103015.25;;;1.41
58102;BMP280;52034;51.926;6.320;2023-02-28T05:39:17;103016.75;;;1.42
58102;BMP280;52034;51.926;6.320;2023-02-28T05:40:18;103019.75;;;1.44
58102;BMP280;52034;51.926;6.320;2023-02-28T05:41:20;103011.44;;;1.44
58102;BMP280;52034;51.926;6.320;2023-02-28T05:42:20;103010.94;;;1.46
58102;BMP280;52034;51.926;6.320;2023-02-28T05:43:20;103019.00;;;1.44
58102;BMP280;52034;51.926;6.320;2023-02-28T05:44:21;103014.22;;;1.44
58102;BMP280;52034;51.926;6.320;2023-02-28T05:45:21;103020.28;;;1.43
58102;BMP280;52034;51.926;6.320;2023-02-28T05:46:21;103020.03;;;1.41
58102;BMP280;52034;51.926;6.320;2023-02-28T05:47:22;103022.81;;;1.41
58102;BMP280;52034;51.926;6.320;2023-02-28T05:48:22;103031.69;;;1.34
58102;BMP280;52034;51.926;6.320;2023-02-28T05:49:22;103022.44;;;1.31
58102;BMP280;52034;51.926;6.320;2023-02-28T05:50:23;103026.97;;;1.29
58102;BMP280;52034;51.926;6.320;2023-02-28T05:51:23;103026.97;;;1.29
58102;BMP280;52034;51.926;6.320;2023-02-28T05:52:23;103022.97;;;1.30
58102;BMP280;52034;51.926;6.320;2023-02-28T05:53:24;103019.44;;;1.29
58102;BMP280;52034;51.926;6.320;2023-02-28T05:54:24;103029.44;;;1.32
58102;BMP280;52034;51.926;6.320;2023-02-28T05:55:24;103026.16;;;1.34
58102;BMP280;52034;51.926;6.320;2023-02-28T05:56:25;103030.22;;;1.33
58102;BMP280;52034;51.926;6.320;2023-02-28T05:57:25;103031.69;;;1.34
58102;BMP280;52034;51.926;6.320;2023-02-28T05:58:26;103030.94;;;1.33
58102;BMP280;52034;51.926;6.320;2023-02-28T05:59:30;103034.47;;;1.34
58102;BMP280;52034;51.926;6.320;2023-02-28T06:00:30;103031.47;;;1.32
58102;BMP280;52034;51.926;6.320;2023-02-28T06:01:37;103029.75;;;1.29
58102;BMP280;52034;51.926;6.320;2023-02-28T06:02:38;103028.78;;;1.26
58102;BMP280;52034;51.926;6.320;2023-02-28T06:03:39;103031.34;;;1.24
58102;BMP280;52034;51.926;6.320;2023-02-28T06:04:40;103037.59;;;1.25
58102;BMP280;52034;51.926;6.320;2023-02-28T06:05:41;103034.84;;;1.25
58102;BMP280;52034;51.926;6.320;2023-02-28T06:06:41;103037.41;;;1.23
58102;BMP280;52034;51.926;6.320;2023-02-28T06:07:43;103037.31;;;1.28
58102;BMP280;52034;51.926;6.320;2023-02-28T06:08:44;103041.06;;;1.31
58102;BMP280;52034;51.926;6.320;2023-02-28T06:09:44;103031.47;;;1.32
58102;BMP280;52034;51.926;6.320;2023-02-28T06:10:45;103029.44;;;1.32
58102;BMP280;52034;51.926;6.320;2023-02-28T06:11:45;103041.47;;;1.35
58102;BMP280;52034;51.926;6.320;2023-02-28T06:12:46;103034.25;;;1.32
58102;BMP280;52034;51.926;6.320;2023-02-28T06:13:46;103040.75;;;1.34
58102;BMP280;52034;51.926;6.320;2023-02-28T06:14:46;103041.81;;;1.31
58102;BMP280;52034;51.926;6.320;2023-02-28T06:15:47;103046.81;;;1.33
58102;BMP280;52034;51.926;6.320;2023-02-28T06:16:47;103046.34;;;1.29
58102;BMP280;52034;51.926;6.320;2023-02-28T06:17:47;103043.59;;;1.29
58102;BMP280;52034;51.926;6.320;2023-02-28T06:18:48;103047.88;;;1.30
58102;BMP280;52034;51.926;6.320;2023-02-28T06:19:48;103051.38;;;1.30
58102;BMP280;52034;51.926;6.320;2023-02-28T06:20:54;103049.38;;;1.31
58102;BMP280;52034;51.926;6.320;2023-02-28T06:21:56;103055.13;;;1.33
58102;BMP280;52034;51.926;6.320;2023-02-28T06:22:57;103044.34;;;1.29
58102;BMP280;52034;51.926;6.320;2023-02-28T06:24:01;103046.81;;;1.33
58102;BMP280;52034;51.926;6.320;2023-02-28T06:25:01;103050.56;;;1.35
58102;BMP280;52034;51.926;6.320;2023-02-28T06:26:02;103049.06;;;1.34
58102;BMP280;52034;51.926;6.320;2023-02-28T06:27:02;103051.59;;;1.32
58102;BMP280;52034;51.926;6.320;2023-02-28T06:28:05;103056.59;;;1.34
58102;BMP280;52034;51.926;6.320;2023-02-28T06:29:06;103051.06;;;1.34
58102;BMP280;52034;51.926;6.320;2023-02-28T06:30:08;103057.66;;;1.31
58102;BMP280;52034;51.926;6.320;2023-02-28T06:31:10;103056.19;;;1.30
58102;BMP280;52034;51.926;6.320;2023-02-28T06:32:10;103062.66;;;1.32